createdAt,value
2022-08-20T00:00:25.181Z,101542.22
2022-08-20T00:02:56.000Z,101548.75
2022-08-20T00:05:26.399Z,101560.22
2022-08-20T00:07:54.401Z,101553.63
2022-08-20T00:10:22.821Z,101559.91
2022-08-20T00:12:53.473Z,101558.91
2022-08-20T00:15:24.938Z,101554.53
2022-08-20T00:17:54.650Z,101558.41
2022-08-20T00:20:25.645Z,101557.34
2022-08-20T00:22:54.099Z,101554.13
2022-08-20T00:25:22.368Z,101564.00
2022-08-20T00:27:50.261Z,101562.50
2022-08-20T00:30:19.428Z,101563.03
2022-08-20T00:32:49.209Z,101554.75
2022-08-20T00:35:18.443Z,101555.94
2022-08-20T00:37:46.318Z,101560.97
2022-08-20T00:40:22.288Z,101558.69
2022-08-20T00:42:55.376Z,101555.22
2022-08-20T00:45:25.714Z,101565.78
2022-08-20T00:47:55.369Z,101550.28
2022-08-20T00:50:27.367Z,101554.22
2022-08-20T00:52:55.822Z,101553.06
2022-08-20T00:55:31.063Z,101546.13
2022-08-20T00:58:03.885Z,101551.44
2022-08-20T01:00:38.786Z,101550.59
2022-08-20T01:03:09.952Z,101542.00
2022-08-20T01:05:38.832Z,101549.06
2022-08-20T01:08:07.301Z,101545.63
2022-08-20T01:10:40.037Z,101551.03
2022-08-20T01:13:13.347Z,101550.72
2022-08-20T01:15:44.061Z,101551.22
2022-08-20T01:18:14.970Z,101553.06
2022-08-20T01:20:45.476Z,101553.13
2022-08-20T01:23:30.978Z,101558.69
2022-08-20T01:26:04.302Z,101565.38
2022-08-20T01:28:39.203Z,101557.59
2022-08-20T01:31:08.937Z,101560.63
2022-08-20T01:33:37.469Z,101557.56
2022-08-20T01:36:07.105Z,101560.56
2022-08-20T01:38:35.425Z,101557.75
2022-08-20T01:41:28.330Z,101562.94
2022-08-20T01:43:58.291Z,101558.00
2022-08-20T01:46:28.132Z,101567.31
2022-08-20T01:48:58.164Z,101565.38
2022-08-20T01:51:29.677Z,101569.78
2022-08-20T01:53:59.977Z,101569.91
2022-08-20T01:56:32.209Z,101565.88
2022-08-20T01:59:02.646Z,101565.97
2022-08-20T02:01:45.945Z,101574.91
2022-08-20T02:04:15.429Z,101571.72
2022-08-20T02:06:56.351Z,101568.56
2022-08-20T02:09:26.483Z,101561.97
2022-08-20T02:11:55.848Z,101568.91
2022-08-20T02:14:23.639Z,101565.50
2022-08-20T02:16:55.231Z,101567.63
2022-08-20T02:19:27.235Z,101569.34
2022-08-20T02:21:59.710Z,101556.34
2022-08-20T02:24:27.495Z,101550.56
2022-08-20T02:26:57.086Z,101548.94
2022-08-20T02:29:26.139Z,101551.28
2022-08-20T02:32:32.379Z,101547.63
2022-08-20T02:34:42.187Z,101551.75
2022-08-20T02:37:10.270Z,101549.34
2022-08-20T02:39:38.053Z,101546.94
2022-08-20T02:42:07.790Z,101540.88
2022-08-20T02:44:35.718Z,101536.03
2022-08-20T02:47:03.476Z,101531.16
2022-08-20T02:49:31.657Z,101526.31
2022-08-20T02:51:59.502Z,101523.94
2022-08-20T02:54:27.231Z,101523.94
2022-08-20T02:56:55.033Z,101525.38
2022-08-20T02:59:24.233Z,101528.31
2022-08-20T03:02:00.278Z,101532.09
2022-08-20T03:04:28.448Z,101532.53
2022-08-20T03:06:56.279Z,101526.00
2022-08-20T03:09:24.122Z,101530.22
2022-08-20T03:11:52.233Z,101534.38
2022-08-20T03:14:20.651Z,101530.63
2022-08-20T03:16:50.083Z,101527.38
2022-08-20T03:19:17.902Z,101524.97
2022-08-20T03:21:45.634Z,101518.13
2022-08-20T03:24:13.498Z,101525.28
2022-08-20T03:26:41.257Z,101527.78
2022-08-20T03:29:09.437Z,101523.41
2022-08-20T03:31:37.179Z,101527.75
2022-08-20T03:34:06.382Z,101524.84
2022-08-20T03:36:34.331Z,101525.22
2022-08-20T03:39:06.316Z,101521.84
2022-08-20T03:41:34.282Z,101517.69
2022-08-20T03:44:02.046Z,101516.03
2022-08-20T03:46:29.913Z,101513.44
2022-08-20T03:49:00.657Z,101507.94
2022-08-20T03:51:31.468Z,101512.44
2022-08-20T03:53:59.755Z,101509.88
2022-08-20T03:56:28.125Z,101505.69
2022-08-20T03:58:55.956Z,101514.19
2022-08-20T04:01:45.503Z,101512.88
2022-08-20T04:04:12.221Z,101519.97
2022-08-20T04:06:42.421Z,101521.38
2022-08-20T04:09:11.607Z,101521.97
2022-08-20T04:11:40.337Z,101516.56
2022-08-20T04:14:09.221Z,101512.16
2022-08-20T04:16:39.420Z,101516.56
2022-08-20T04:19:07.450Z,101516.06
2022-08-20T04:21:37.278Z,101518.06
2022-08-20T04:24:07.324Z,101520.59
2022-08-20T04:26:37.186Z,101522.31
2022-08-20T04:29:05.696Z,101522.50
2022-08-20T04:31:34.745Z,101523.88
2022-08-20T04:34:04.200Z,101530.47
2022-08-20T04:36:31.968Z,101526.84
2022-08-20T04:38:59.757Z,101521.91
2022-08-20T04:41:28.970Z,101522.75
2022-08-20T04:43:58.394Z,101525.72
2022-08-20T04:46:28.877Z,101525.81
2022-08-20T04:48:58.026Z,101520.41
2022-08-20T04:51:26.779Z,101526.84
2022-08-20T04:53:56.532Z,101523.72
2022-08-20T04:56:26.433Z,101526.13
2022-08-20T04:58:58.237Z,101529.44
2022-08-20T05:01:26.541Z,101536.03
2022-08-20T05:03:55.797Z,101530.81
2022-08-20T05:06:26.194Z,101529.25
2022-08-20T05:08:54.165Z,101529.03
2022-08-20T05:11:35.884Z,101533.28
2022-08-20T05:14:08.796Z,101534.88
2022-08-20T05:16:40.908Z,101537.75
2022-08-20T05:19:11.924Z,101537.75
2022-08-20T05:21:40.741Z,101548.59
2022-08-20T05:24:10.056Z,101545.53
2022-08-20T05:26:37.893Z,101549.63
2022-08-20T05:29:07.547Z,101547.78
2022-08-20T05:31:35.838Z,101551.69
2022-08-20T05:34:03.927Z,101552.38
2022-08-20T05:36:31.885Z,101545.53
2022-08-20T05:38:59.746Z,101550.09
2022-08-20T05:41:30.074Z,101558.97
2022-08-20T05:44:01.306Z,101568.88
2022-08-20T05:46:32.246Z,101555.41
2022-08-20T05:49:01.451Z,101552.78
2022-08-20T05:51:30.091Z,101560.91
2022-08-20T05:53:59.497Z,101572.09
2022-08-20T05:56:30.369Z,101569.72
2022-08-20T05:59:00.585Z,101572.75
2022-08-20T06:01:28.533Z,101574.50
2022-08-20T06:04:15.592Z,101575.63
2022-08-20T06:06:46.172Z,101577.75
2022-08-20T06:09:15.742Z,101571.00
2022-08-20T06:11:43.491Z,101577.06
2022-08-20T06:14:11.286Z,101581.22
2022-08-20T06:16:39.244Z,101584.50
2022-08-20T06:19:25.153Z,101590.03
2022-08-20T06:21:54.444Z,101583.97
2022-08-20T06:24:22.318Z,101581.06
2022-08-20T06:26:56.591Z,101587.44
2022-08-20T06:29:24.339Z,101582.16
2022-08-20T06:31:52.102Z,101580.34
2022-08-20T06:34:21.405Z,101577.47
2022-08-20T06:36:49.222Z,101585.00
2022-08-20T06:39:17.452Z,101584.88
2022-08-20T06:41:45.566Z,101577.06
2022-08-20T06:44:13.453Z,101587.28
2022-08-20T06:46:41.791Z,101587.06
2022-08-20T06:49:09.646Z,101578.16
2022-08-20T06:51:40.094Z,101582.38
2022-08-20T06:54:09.266Z,101578.16
2022-08-20T06:56:37.042Z,101577.75
2022-08-20T06:59:04.795Z,101574.88
2022-08-20T07:01:32.933Z,101575.94
2022-08-20T07:04:00.760Z,101571.13
2022-08-20T07:06:28.959Z,101576.59
2022-08-20T07:08:58.371Z,101579.88
2022-08-20T07:11:28.611Z,101572.44
2022-08-20T07:13:58.142Z,101575.38
2022-08-20T07:16:26.206Z,101581.97
2022-08-20T07:18:54.300Z,101576.66
2022-08-20T07:21:22.111Z,101576.34
2022-08-20T07:23:50.025Z,101581.09
2022-08-20T07:26:19.138Z,101578.97
2022-08-20T07:28:47.414Z,101584.34
2022-08-20T07:31:34.835Z,101588.72
2022-08-20T07:34:03.484Z,101584.44
2022-08-20T07:36:31.502Z,101588.75
2022-08-20T07:38:59.268Z,101588.97
2022-08-20T07:41:35.265Z,101596.75
2022-08-20T07:44:03.455Z,101584.91
2022-08-20T07:46:32.280Z,101591.72
2022-08-20T07:49:00.371Z,101589.44
2022-08-20T07:51:28.549Z,101590.94
2022-08-20T07:53:58.174Z,101586.53
2022-08-20T07:56:26.237Z,101593.53
2022-08-20T07:58:59.276Z,101593.84
2022-08-20T08:01:30.434Z,101593.59
2022-08-20T08:03:59.027Z,101590.44
2022-08-20T08:06:31.045Z,101595.53
2022-08-20T08:09:04.138Z,101594.59
2022-08-20T08:11:34.519Z,101592.66
2022-08-20T08:14:06.638Z,101583.44
2022-08-20T08:16:35.341Z,101583.53
2022-08-20T08:19:07.598Z,101587.75
2022-08-20T08:21:35.607Z,101594.16
2022-08-20T08:24:03.733Z,101598.22
2022-08-20T08:26:31.588Z,101591.69
2022-08-20T08:28:59.343Z,101597.28
2022-08-20T08:31:28.790Z,101600.88
2022-08-20T08:33:56.703Z,101605.72
2022-08-20T08:36:27.297Z,101605.50
2022-08-20T08:38:56.460Z,101601.78
2022-08-20T08:41:31.221Z,101604.69
2022-08-20T08:44:08.109Z,101612.31
2022-08-20T08:46:42.618Z,101610.38
2022-08-20T08:49:15.153Z,101612.41
2022-08-20T08:51:46.207Z,101610.19
2022-08-20T08:54:17.546Z,101609.94
2022-08-20T08:56:49.667Z,101605.28
2022-08-20T08:59:19.389Z,101604.84
2022-08-20T09:01:54.990Z,101600.53
2022-08-20T09:04:31.456Z,101599.59
2022-08-20T09:07:00.449Z,101597.84
2022-08-20T09:09:30.687Z,101599.09
2022-08-20T09:12:05.316Z,101599.34
2022-08-20T09:14:33.651Z,101591.31
2022-08-20T09:17:03.241Z,101599.84
2022-08-20T09:19:31.141Z,101586.75
2022-08-20T09:21:59.030Z,101592.94
2022-08-20T09:24:26.859Z,101586.13
2022-08-20T09:26:54.595Z,101590.38
2022-08-20T09:29:22.302Z,101593.31
2022-08-20T09:31:50.191Z,101603.06
2022-08-20T09:34:19.294Z,101591.47
2022-08-20T09:36:47.035Z,101591.06
2022-08-20T09:39:15.855Z,101595.09
2022-08-20T09:41:43.610Z,101594.38
2022-08-20T09:44:11.352Z,101594.19
2022-08-20T09:46:39.112Z,101591.97
2022-08-20T09:49:06.876Z,101596.66
2022-08-20T09:51:38.778Z,101585.63
2022-08-20T09:54:07.204Z,101587.38
2022-08-20T09:56:36.038Z,101595.91
2022-08-20T09:59:04.029Z,101592.13
2022-08-20T10:01:33.182Z,101592.34
2022-08-20T10:04:01.035Z,101590.59
2022-08-20T10:06:28.748Z,101586.66
2022-08-20T10:08:57.864Z,101587.69
2022-08-20T10:11:25.588Z,101584.31
2022-08-20T10:13:53.298Z,101584.69
2022-08-20T10:16:21.082Z,101577.63
2022-08-20T10:18:49.411Z,101584.53
2022-08-20T10:21:17.458Z,101577.13
2022-08-20T10:23:45.326Z,101570.72
2022-08-20T10:26:15.081Z,101575.56
2022-08-20T10:28:42.840Z,101574.72
2022-08-20T10:31:12.289Z,101575.41
2022-08-20T10:33:42.171Z,101575.78
2022-08-20T10:36:12.303Z,101571.44
2022-08-20T10:38:40.120Z,101569.19
2022-08-20T10:41:07.891Z,101570.28
2022-08-20T10:43:37.042Z,101566.28
2022-08-20T10:46:04.857Z,101566.25
2022-08-20T10:48:33.106Z,101567.31
2022-08-20T10:51:00.849Z,101559.38
2022-08-20T10:53:28.605Z,101562.63
2022-08-20T10:55:57.606Z,101555.97
2022-08-20T10:58:25.770Z,101559.91
2022-08-20T11:00:54.964Z,101561.44
2022-08-20T11:03:22.731Z,101549.84
2022-08-20T11:05:50.782Z,101551.13
2022-08-20T11:08:33.543Z,101544.63
2022-08-20T11:11:02.697Z,101551.53
2022-08-20T11:13:30.427Z,101546.63
2022-08-20T11:15:59.548Z,101548.78
2022-08-20T11:18:27.331Z,101540.25
2022-08-20T11:20:55.098Z,101539.38
2022-08-20T11:23:23.334Z,101550.34
2022-08-20T11:25:51.243Z,101548.16
2022-08-20T11:28:31.969Z,101550.16
2022-08-20T11:31:01.802Z,101553.16
2022-08-20T11:33:29.642Z,101546.97
2022-08-20T11:35:57.577Z,101545.78
2022-08-20T11:38:25.576Z,101540.88
2022-08-20T11:40:53.319Z,101551.13
2022-08-20T11:43:21.063Z,101549.19
2022-08-20T11:45:51.779Z,101552.03
2022-08-20T11:48:20.921Z,101557.22
2022-08-20T11:50:49.639Z,101551.75
2022-08-20T11:53:18.005Z,101547.88
2022-08-20T11:55:45.845Z,101549.34
2022-08-20T11:58:13.633Z,101542.72
2022-08-20T12:00:42.709Z,101546.44
2022-08-20T12:03:11.861Z,101540.16
2022-08-20T12:05:42.655Z,101529.66
2022-08-20T12:08:27.491Z,101526.94
2022-08-20T12:10:56.964Z,101535.13
2022-08-20T12:13:30.524Z,101532.81
2022-08-20T12:16:04.840Z,101526.59
2022-08-20T12:18:32.937Z,101528.78
2022-08-20T12:21:02.037Z,101529.53
2022-08-20T12:23:29.794Z,101521.53
2022-08-20T12:25:57.622Z,101525.38
2022-08-20T12:28:27.085Z,101520.56
2022-08-20T12:30:54.842Z,101519.63
2022-08-20T12:33:22.586Z,101508.97
2022-08-20T12:35:50.321Z,101517.88
2022-08-20T12:38:19.497Z,101506.59
2022-08-20T12:40:47.253Z,101504.66
2022-08-20T12:43:15.036Z,101507.75
2022-08-20T12:45:42.993Z,101501.50
2022-08-20T12:48:13.119Z,101506.69
2022-08-20T12:50:42.819Z,101497.78
2022-08-20T12:53:10.608Z,101492.28
2022-08-20T12:55:39.830Z,101495.38
2022-08-20T12:58:10.318Z,101489.81
2022-08-20T13:00:43.106Z,101494.09
2022-08-20T13:03:13.357Z,101490.03
2022-08-20T13:05:42.428Z,101490.97
2022-08-20T13:08:12.220Z,101485.53
2022-08-20T13:10:45.529Z,101489.25
2022-08-20T13:13:13.838Z,101495.97
2022-08-20T13:15:41.586Z,101475.75
2022-08-20T13:18:09.786Z,101469.09
2022-08-20T13:20:38.043Z,101469.94
2022-08-20T13:23:06.264Z,101459.34
2022-08-20T13:25:35.019Z,101452.78
2022-08-20T13:28:06.177Z,101451.22
2022-08-20T13:30:37.298Z,101448.75
2022-08-20T13:33:05.180Z,101448.44
2022-08-20T13:35:33.123Z,101449.81
2022-08-20T13:38:00.963Z,101438.50
2022-08-20T13:40:28.732Z,101429.91
2022-08-20T13:42:56.599Z,101438.63
2022-08-20T13:45:25.820Z,101438.22
2022-08-20T13:47:55.679Z,101436.53
2022-08-20T13:50:26.254Z,101426.59
2022-08-20T13:52:56.190Z,101424.47
2022-08-20T13:55:26.435Z,101429.19
2022-08-20T13:57:56.356Z,101424.41
2022-08-20T14:00:31.781Z,101430.28
2022-08-20T14:03:00.256Z,101414.81
2022-08-20T14:05:28.574Z,101423.94
2022-08-20T14:07:56.645Z,101422.03
2022-08-20T14:10:31.308Z,101414.53
2022-08-20T14:12:59.478Z,101419.94
2022-08-20T14:15:28.561Z,101413.28
2022-08-20T14:17:58.608Z,101405.94
2022-08-20T14:20:31.944Z,101402.31
2022-08-20T14:23:01.610Z,101405.53
2022-08-20T14:25:30.361Z,101400.22
2022-08-20T14:27:58.862Z,101396.09
2022-08-20T14:30:30.513Z,101387.13
2022-08-20T14:32:58.589Z,101387.34
2022-08-20T14:35:26.498Z,101390.44
2022-08-20T14:37:56.587Z,101382.25
2022-08-20T14:40:26.121Z,101377.84
2022-08-20T14:42:54.192Z,101378.47
2022-08-20T14:45:22.922Z,101366.19
2022-08-20T14:47:54.390Z,101378.16
2022-08-20T14:50:25.034Z,101372.63
2022-08-20T14:52:53.040Z,101368.34
2022-08-20T14:55:23.530Z,101371.13
2022-08-20T14:57:51.834Z,101361.56
2022-08-20T15:00:22.561Z,101360.00
2022-08-20T15:02:50.364Z,101357.06
2022-08-20T15:05:19.978Z,101356.66
2022-08-20T15:07:51.556Z,101352.75
2022-08-20T15:10:23.761Z,101353.53
2022-08-20T15:12:51.549Z,101345.31
2022-08-20T15:15:19.624Z,101341.16
2022-08-20T15:17:49.512Z,101338.69
2022-08-20T15:20:22.340Z,101342.31
2022-08-20T15:22:51.131Z,101340.41
2022-08-20T15:25:21.660Z,101335.66
2022-08-20T15:27:49.966Z,101331.31
2022-08-20T15:30:20.731Z,101322.81
2022-08-20T15:32:54.082Z,101330.00
2022-08-20T15:35:25.519Z,101325.97
2022-08-20T15:37:54.731Z,101323.97
2022-08-20T15:40:27.752Z,101323.66
2022-08-20T15:42:56.273Z,101308.97
2022-08-20T15:45:24.019Z,101320.13
2022-08-20T15:47:56.209Z,101323.91
2022-08-20T15:50:35.365Z,101319.59
2022-08-20T15:53:08.414Z,101311.22
2022-08-20T15:55:38.707Z,101323.41
2022-08-20T15:58:15.757Z,101320.97
2022-08-20T16:00:50.917Z,101316.84
2022-08-20T16:03:59.080Z,101311.38
2022-08-20T16:06:31.861Z,101309.34
2022-08-20T16:09:14.090Z,101300.28
2022-08-20T16:11:51.027Z,101296.16
2022-08-20T16:14:22.413Z,101298.72
2022-08-20T16:17:01.365Z,101305.22
2022-08-20T16:19:36.994Z,101295.66
2022-08-20T16:22:08.345Z,101290.81
2022-08-20T16:24:36.162Z,101299.38
2022-08-20T16:27:13.542Z,101290.50
2022-08-20T16:29:48.189Z,101292.75
2022-08-20T16:32:24.495Z,101298.72
2022-08-20T16:34:57.597Z,101290.00
2022-08-20T16:37:36.900Z,101300.00
2022-08-20T16:40:20.087Z,101297.28
2022-08-20T16:42:51.224Z,101281.75
2022-08-20T16:45:22.110Z,101286.31
2022-08-20T16:47:51.792Z,101278.78
2022-08-20T16:50:24.020Z,101281.66
2022-08-20T16:52:53.984Z,101288.34
2022-08-20T16:55:24.669Z,101280.53
2022-08-20T16:57:53.016Z,101278.41
2022-08-20T17:00:25.792Z,101273.81
2022-08-20T17:02:54.879Z,101276.94
2022-08-20T17:05:23.453Z,101272.97
2022-08-20T17:07:54.921Z,101269.59
2022-08-20T17:10:28.413Z,101261.53
2022-08-20T17:12:59.707Z,101264.09
2022-08-20T17:15:30.118Z,101267.81
2022-08-20T17:18:17.991Z,101258.03
2022-08-20T17:20:46.716Z,101265.31
2022-08-20T17:23:19.002Z,101266.00
2022-08-20T17:25:57.736Z,101266.06
2022-08-20T17:28:25.577Z,101268.03
2022-08-20T17:30:53.987Z,101268.19
2022-08-20T17:33:31.239Z,101267.03
2022-08-20T17:36:02.334Z,101267.72
2022-08-20T17:38:38.192Z,101269.78
2022-08-20T17:41:16.568Z,101275.88
2022-08-20T17:43:45.920Z,101278.44
2022-08-20T17:46:17.357Z,101279.00
2022-08-20T17:48:46.931Z,101270.66
2022-08-20T17:51:19.941Z,101265.38
2022-08-20T17:53:54.069Z,101270.22
2022-08-20T17:56:27.100Z,101260.69
2022-08-20T17:59:01.382Z,101263.25
2022-08-20T18:01:31.733Z,101267.31
2022-08-20T18:03:59.746Z,101264.09
2022-08-20T18:06:37.556Z,101266.13
2022-08-20T18:09:16.890Z,101264.72
2022-08-20T18:11:50.588Z,101270.75
2022-08-20T18:14:31.478Z,101269.50
2022-08-20T18:17:14.695Z,101269.88
2022-08-20T18:20:06.638Z,101271.38
2022-08-20T18:22:44.004Z,101271.53
2022-08-20T18:25:22.955Z,101272.47
2022-08-20T18:27:53.874Z,101277.28
2022-08-20T18:30:24.181Z,101274.09
2022-08-20T18:33:03.099Z,101275.56
2022-08-20T18:35:37.526Z,101278.34
2022-08-20T18:38:28.181Z,101270.88
2022-08-20T18:41:12.560Z,101276.47
2022-08-20T18:43:40.878Z,101277.34
2022-08-20T18:46:14.370Z,101272.25
2022-08-20T18:48:55.841Z,101270.84
2022-08-20T18:51:35.428Z,101260.56
2022-08-20T18:54:04.240Z,101249.38
2022-08-20T18:56:41.997Z,101249.50
2022-08-20T18:59:15.493Z,101246.81
2022-08-20T19:01:44.477Z,101247.28
2022-08-20T19:04:21.870Z,101244.56
2022-08-20T19:06:57.423Z,101242.31
2022-08-20T19:09:53.696Z,101254.50
2022-08-20T19:12:39.189Z,101256.66
2022-08-20T19:15:12.533Z,101251.88
2022-08-20T19:17:52.947Z,101247.72
2022-08-20T19:20:23.709Z,101253.31
2022-08-20T19:22:53.642Z,101251.88
2022-08-20T19:25:27.200Z,101257.00
2022-08-20T19:27:58.033Z,101247.41
2022-08-20T19:30:36.491Z,101247.53
2022-08-20T19:33:05.062Z,101253.44
2022-08-20T19:35:33.141Z,101262.09
2022-08-20T19:38:02.231Z,101272.72
2022-08-20T19:40:33.073Z,101281.03
2022-08-20T19:43:16.099Z,101270.16
2022-08-20T19:45:48.175Z,101266.91
2022-08-20T19:48:32.129Z,101260.50
2022-08-20T19:51:07.546Z,101279.59
2022-08-20T19:53:38.367Z,101275.31
2022-08-20T19:56:10.868Z,101282.31
2022-08-20T19:58:41.862Z,101284.13
2022-08-20T20:01:16.301Z,101275.84
2022-08-20T20:03:56.659Z,101279.13
2022-08-20T20:06:26.863Z,101278.34
2022-08-20T20:08:57.469Z,101278.94
2022-08-20T20:11:31.909Z,101279.34
2022-08-20T20:14:07.709Z,101283.66
2022-08-20T20:16:36.265Z,101282.66
2022-08-20T20:19:25.674Z,101281.75
2022-08-20T20:22:06.078Z,101277.56
2022-08-20T20:24:42.788Z,101274.03
2022-08-20T20:27:20.245Z,101269.66
2022-08-20T20:29:58.602Z,101280.31
2022-08-20T20:32:26.574Z,101273.03
2022-08-20T20:34:57.090Z,101266.28
2022-08-20T20:37:39.156Z,101277.00
2022-08-20T20:40:25.390Z,101277.59
2022-08-20T20:43:02.437Z,101274.22
2022-08-20T20:45:34.782Z,101274.69
2022-08-20T20:48:15.193Z,101279.66
2022-08-20T20:50:43.022Z,101277.69
2022-08-20T20:53:11.118Z,101280.50
2022-08-20T20:55:39.860Z,101288.13
2022-08-20T20:58:07.952Z,101294.06
2022-08-20T21:00:37.139Z,101294.31
2022-08-20T21:03:04.989Z,101298.97
2022-08-20T21:05:33.418Z,101293.91
2022-08-20T21:08:03.782Z,101298.34
2022-08-20T21:10:34.846Z,101296.78
2022-08-20T21:13:03.868Z,101306.19
2022-08-20T21:15:32.805Z,101310.16
2022-08-20T21:18:03.292Z,101316.31
2022-08-20T21:20:31.481Z,101319.78
2022-08-20T21:23:01.038Z,101320.28
2022-08-20T21:25:30.421Z,101316.09
2022-08-20T21:27:58.420Z,101314.38
2022-08-20T21:30:26.423Z,101322.75
2022-08-20T21:32:54.505Z,101325.22
2022-08-20T21:35:23.841Z,101322.03
2022-08-20T21:37:51.891Z,101330.16
2022-08-20T21:40:21.831Z,101327.19
2022-08-20T21:42:50.092Z,101331.34
2022-08-20T21:45:19.858Z,101324.97
2022-08-20T21:47:48.829Z,101329.66
2022-08-20T21:50:19.168Z,101320.44
2022-08-20T21:52:59.496Z,101335.56
2022-08-20T21:55:29.302Z,101333.38
2022-08-20T21:57:57.798Z,101333.88
2022-08-20T22:00:52.379Z,101327.81
2022-08-20T22:03:21.166Z,101333.59
2022-08-20T22:05:50.559Z,101340.88
2022-08-20T22:08:20.455Z,101338.16
2022-08-20T22:10:48.320Z,101341.13
2022-08-20T22:13:17.093Z,101334.75
2022-08-20T22:15:44.833Z,101333.00
2022-08-20T22:18:12.576Z,101324.00
2022-08-20T22:20:41.424Z,101329.56
2022-08-20T22:23:09.427Z,101327.09
2022-08-20T22:25:38.546Z,101325.72
2022-08-20T22:28:06.852Z,101334.09
2022-08-20T22:30:35.639Z,101337.31
2022-08-20T22:33:10.731Z,101336.56
2022-08-20T22:35:42.722Z,101336.34
2022-08-20T22:38:10.460Z,101317.47
2022-08-20T22:40:39.608Z,101315.88
2022-08-20T22:43:07.665Z,101318.94
2022-08-20T22:45:36.807Z,101323.38
2022-08-20T22:48:06.594Z,101319.63
2022-08-20T22:50:34.434Z,101322.34
2022-08-20T22:53:02.889Z,101321.75
2022-08-20T22:55:30.727Z,101323.56
2022-08-20T22:57:59.924Z,101311.50
2022-08-20T23:00:28.847Z,101305.72
2022-08-20T23:02:59.940Z,101312.84
2022-08-20T23:05:30.473Z,101311.13
2022-08-20T23:08:00.449Z,101307.75
2022-08-20T23:10:29.886Z,101301.72
2022-08-20T23:12:59.325Z,101303.34
2022-08-20T23:15:28.581Z,101309.34
2022-08-20T23:18:01.097Z,101308.22
2022-08-20T23:20:28.882Z,101302.19
2022-08-20T23:22:56.828Z,101299.84
2022-08-20T23:25:24.729Z,101303.13
2022-08-20T23:27:57.053Z,101308.03
2022-08-20T23:30:33.179Z,101300.63
2022-08-20T23:33:01.521Z,101302.81
2022-08-20T23:35:33.140Z,101303.28
2022-08-20T23:38:01.213Z,101293.69
2022-08-20T23:40:31.080Z,101302.31
2022-08-20T23:42:59.715Z,101285.19
2022-08-20T23:45:29.091Z,101287.25
2022-08-20T23:47:58.538Z,101292.50
2022-08-20T23:50:30.130Z,101295.50
2022-08-20T23:52:58.633Z,101292.50
2022-08-20T23:55:26.892Z,101288.91
2022-08-20T23:57:55.071Z,101290.75
